• Join FlightAware (Why Join?)
  • Login
  • US Flag 
02:05AM EDT


 

Airport Tracker/Info


-or-


 

Live Flight TrackerFlight Track Log ✈ RPA3436 ✈ 05-Jul-2013 ✈ KCHS - KDCA

Flight Track Log - Related Links

Times and Time Zones

All times are in EDT time to prevent confusion due to time zone crossing. See the RPA3436 flight status page for this flight to view local times or setup timezone preferences in your user account.

Time Position Orientation Groundspeed Altitude Reporting Facility
EDT Latitude Longitude Course Direction KTS MPH feet Rate Location/Type
08:11AM 32.8911 -79.9908 17° North 179 206 3,800  Level Jacksonville Center
08:12AM 33.2352 -79.9296 North  Level FlightAware Approximate
08:12AM 32.9481 -79.9294 42° Northeast 220 253 7,300  Level Jacksonville Center
08:13AM 33.3515 -79.8909 23° Northeast  Level FlightAware Approximate
08:13AM 33.0317 -79.9342 357° North 239 275 10,600  Level Jacksonville Center
08:14AM 33.4701 -79.8609 13° North  Level FlightAware Approximate
08:14AM 33.1225 -79.8964 19° North 282 325 13,000  Level Jacksonville Center
08:15AM 33.5884 -79.8272 13° North  Level FlightAware Approximate
08:15AM 33.2133 -79.8486 24° Northeast 327 376 15,700  Level Jacksonville Center
08:16AM 33.7073 -79.8000 North  Level FlightAware Approximate
08:16AM 33.3100 -79.7933 26° Northeast 360 414 18,200  Level Jacksonville Center
08:17AM 33.8237 -79.7599 17° North  Level FlightAware Approximate
08:17AM 33.4089 -79.7400 24° Northeast 374 430 20,600  Level Jacksonville Center
08:18AM 33.5097 -79.6842 25° Northeast 386 444 22,900 2,100 Climbing Jacksonville Center
08:19AM 33.6128 -79.6281 24° Northeast 397 457 24,800 1,920 Climbing Jacksonville Center
08:20AM 33.7217 -79.5667 25° Northeast 408 470 26,800 1,800 Climbing Jacksonville Center
08:21AM 33.8306 -79.5050 25° Northeast 419 482 28,500 1,080 Climbing Jacksonville Center
08:22AM 33.9394 -79.4458 24° Northeast 424 488 29,000 120 Climbing Jacksonville Center
08:24AM 34.1275 -79.3422 25° Northeast 388 447 29,000  Level Washington Center
08:25AM 34.2275 -79.2867 25° Northeast 388 447 29,000  Level Washington Center
08:26AM 34.3336 -79.2261 25° Northeast 399 459 29,000  Level Washington Center
08:27AM 34.4356 -79.1675 25° Northeast 404 465 29,000  Level Washington Center
08:28AM 34.5394 -79.1092 25° Northeast 404 465 29,000  Level Washington Center
08:29AM 34.6436 -79.0478 26° Northeast 404 465 29,000  Level Washington Center
08:30AM 34.7453 -78.9892 25° Northeast 404 465 29,000  Level Washington Center
08:31AM 34.8494 -78.9275 26° Northeast 404 465 29,000  Level Washington Center
08:32AM 34.9511 -78.8683 25° Northeast 404 465 29,000  Level Washington Center
08:33AM 35.0531 -78.8067 26° Northeast 404 465 29,000  Level Washington Center
08:34AM 35.1567 -78.7472 25° Northeast 404 465 29,000  Level Washington Center
08:35AM 35.2606 -78.6853 26° Northeast 404 465 29,000  Level Washington Center
08:36AM 35.3772 -78.6158 26° Northeast 416 479 29,000  Level Washington Center
08:37AM 35.4703 -78.5606 26° Northeast 416 479 29,000  Level Washington Center
08:38AM 35.5847 -78.4908 26° Northeast 416 479 29,000  Level Washington Center
08:39AM 35.6947 -78.4308 24° Northeast 416 479 29,000  Level Washington Center
08:40AM 35.7964 -78.3706 26° Northeast 410 472 29,000  Level Washington Center
08:41AM 35.9000 -78.3050 27° Northeast 410 472 29,000  Level Washington Center
08:42AM 36.0036 -78.2469 24° Northeast 410 472 29,000  Level Washington Center
08:43AM 36.1094 -78.1808 27° Northeast 410 472 29,000  Level Washington Center
08:44AM 36.2128 -78.1200 25° Northeast 410 472 29,000 -660 Level Washington Center
08:45AM 36.3164 -78.0564 26° Northeast 410 472 27,700 -1,020 Descending Washington Center
08:46AM 36.4008 -78.0047 26° Northeast 415 478 27,000 -360 Descending Washington Center
08:47AM 36.5172 -77.9333 26° Northeast 415 478 27,000 -120 Level Washington Center
08:48AM 36.6186 -77.8692 27° Northeast 415 478 26,800 -1,140 Descending Washington Center
08:49AM 36.7239 -77.8050 26° Northeast 410 472 24,800 -2,340 Descending Washington Center
08:50AM 36.8358 -77.7381 26° Northeast 410 472 22,300 -1,440 Descending Washington Center
08:51AM 36.9328 -77.6731 28° Northeast 405 466 22,000 -180 Descending Washington Center
08:52AM 37.0339 -77.6161 24° Northeast 400 460 22,000  Level Washington Center
08:53AM 37.1389 -77.5744 18° North 395 455 22,000  Level Washington Center
08:54AM 37.2461 -77.5356 16° North 395 455 22,000  Level Washington Center
08:55AM 37.3550 -77.4992 15° North 395 455 22,000  Level Washington Center
08:56AM 37.4600 -77.4600 16° North 395 455 22,000  Level Washington Center
08:57AM 37.5461 -77.4281 16° North 395 455 22,000 -240 Level Washington Center
08:58AM 37.6633 -77.3861 16° North 395 455 21,600 -1,260 Descending Washington Center
08:59AM 37.7683 -77.3467 17° North 395 455 19,600 -1,920 Descending Washington Center
09:00AM 37.8689 -77.3094 16° North 395 455 17,800 -1,680 Descending Washington Center
09:01AM 37.9653 -77.2747 16° North 373 429 16,300 -1,800 Descending Washington Center
09:02AM 38.0597 -77.2428 15° North 361 415 14,200 -1,860 Descending Washington Center
09:03AM 38.1478 -77.2103 16° North 340 391 12,600 -1,800 Descending Washington Center
09:04AM 38.2400 -77.1753 17° North 319 367 10,700 -1,320 Descending Washington Center
09:05AM 38.3153 -77.1556 12° North 314 361 10,000 -360 Descending Washington Center
09:06AM 38.3989 -77.1361 10° North 306 352 10,000  Level Washington Center
09:07AM 38.4825 -77.1167 10° North 300 345 10,000  Level Washington Center
09:08AM 38.5661 -77.1000 North 300 345 10,000  Level Washington Center
09:09AM 38.6667 -77.0833 North 303 349 10,000 -600 Level Potomac TRACON
09:10AM 38.7500 -77.0667 North 296 341 8,900 -1,500 Descending Potomac TRACON
09:11AM 38.8167 -77.1000 339° North 298 343 7,200 -1,560 Descending Potomac TRACON
09:12AM 38.8667 -77.1500 322° Northwest 268 308 6,100 -900 Descending Potomac TRACON
09:13AM 38.9000 -77.2000 311° West 224 258 5,500 -660 Descending Potomac TRACON
09:14AM 38.9500 -77.2500 322° Northwest 195 224 4,800 -1,080 Descending Potomac TRACON
09:15AM 38.9833 -77.2500 360° North 209 241 3,400 -900 Descending Potomac TRACON
09:16AM 38.9833 -77.1833 90° East 187 215 3,000 -420 Descending Potomac TRACON